createdAt,value
2017-11-11T16:25:35.487Z,98.49
2017-11-11T16:26:37.835Z,98.30
2017-11-11T16:27:41.491Z,98.87
2017-11-11T16:28:45.364Z,98.49
2017-11-11T17:50:10.650Z,99.68
2017-11-11T17:51:12.050Z,99.20
2017-11-11T17:52:14.880Z,99.39
2017-11-11T17:53:17.592Z,99.11
2017-11-11T17:54:19.013Z,99.49
2017-11-11T17:55:22.617Z,99.49
2017-11-11T17:56:25.515Z,99.39
2017-11-11T17:57:28.201Z,99.39
2017-11-11T17:58:31.018Z,99.87
2017-11-11T17:59:33.820Z,99.87
2017-11-11T18:00:36.514Z,99.77
2017-11-11T18:01:40.704Z,99.87
2017-11-11T18:02:44.566Z,99.96
2017-11-11T18:03:48.108Z,99.77
2017-11-11T18:04:51.706Z,99.87
2017-11-11T18:05:55.502Z,99.87
2017-11-11T18:06:59.045Z,99.96
2017-11-11T18:08:02.670Z,99.91
2017-11-11T18:09:06.290Z,99.87
2017-11-11T18:10:07.758Z,99.77
2017-11-11T18:11:10.550Z,99.87
2017-11-11T18:12:13.447Z,99.63
2017-11-11T18:13:16.335Z,99.68
2017-11-11T18:14:18.818Z,99.99
2017-11-11T18:15:21.670Z,99.63
2017-11-11T18:16:24.433Z,99.72
2017-11-11T18:17:27.459Z,99.99
2017-11-11T18:18:30.480Z,99.99
2017-11-11T18:19:33.196Z,99.53
2017-11-11T18:20:35.877Z,99.99
2017-11-11T18:21:37.340Z,99.99
2017-11-11T18:22:40.317Z,99.53
2017-11-11T18:23:43.160Z,99.82
2017-11-11T18:24:46.389Z,99.82
2017-11-11T18:25:49.168Z,99.99
2017-11-11T18:26:52.007Z,99.99
2017-11-11T18:27:54.910Z,99.99
2017-11-11T18:28:58.242Z,99.99
2017-11-11T18:30:01.321Z,99.99
2017-11-11T18:31:04.019Z,99.99
2017-11-11T18:32:07.026Z,99.99
2017-11-11T18:33:09.737Z,99.99
2017-11-11T18:34:12.075Z,99.99
2017-11-11T18:35:13.559Z,99.99
2017-11-11T18:36:16.297Z,99.99
2017-11-11T18:37:19.117Z,99.99
2017-11-11T18:38:22.917Z,99.99
2017-11-11T18:39:26.184Z,99.99
2017-11-11T18:40:29.014Z,99.99
2017-11-11T18:41:31.577Z,99.99
2017-11-11T18:42:33.031Z,99.99
2017-11-11T18:43:35.702Z,99.99
2017-11-11T18:44:37.151Z,99.99
2017-11-11T18:45:41.989Z,99.99
2017-11-11T18:46:44.826Z,99.99
2017-11-11T18:47:47.533Z,99.99
2017-11-11T18:48:50.331Z,99.99
2017-11-11T18:49:53.080Z,99.99
2017-11-11T18:50:55.782Z,99.99
2017-11-11T18:51:58.545Z,99.99
2017-11-11T18:53:01.244Z,99.99
2017-11-11T18:54:04.212Z,99.99
2017-11-11T18:55:08.502Z,99.99
2017-11-11T18:56:11.596Z,99.99
2017-11-11T18:57:15.434Z,99.99
2017-11-11T18:58:19.100Z,99.99
2017-11-11T18:59:22.711Z,99.99
2017-11-11T19:00:26.578Z,99.99
2017-11-11T19:01:30.121Z,99.99
2017-11-11T19:02:33.658Z,99.99
2017-11-11T19:03:36.965Z,99.99
2017-11-11T19:04:40.333Z,99.99
2017-11-11T19:05:43.876Z,99.99
2017-11-11T19:06:47.484Z,99.99
2017-11-11T19:07:51.113Z,99.99
2017-11-11T19:08:54.652Z,99.99
2017-11-11T19:09:58.693Z,99.99
2017-11-11T19:11:02.289Z,99.99
2017-11-11T19:12:05.983Z,99.99
2017-11-11T19:13:10.037Z,99.99
2017-11-11T19:14:12.753Z,99.99
2017-11-11T19:15:15.560Z,99.99
2017-11-11T19:16:18.141Z,99.99
2017-11-11T19:17:20.967Z,99.99
2017-11-11T19:18:23.808Z,99.99
2017-11-11T19:19:26.611Z,99.99
2017-11-11T19:20:29.547Z,99.99
2017-11-11T19:21:32.317Z,99.99
2017-11-11T19:22:35.256Z,99.99
2017-11-11T19:23:39.514Z,99.99
2017-11-11T19:24:44.270Z,99.99
2017-11-11T19:25:48.022Z,99.99
2017-11-11T19:26:51.621Z,99.99
2017-11-11T19:27:55.168Z,99.99
2017-11-11T19:28:58.714Z,99.99
2017-11-11T19:30:01.420Z,99.99
2017-11-11T19:31:04.220Z,99.99
2017-11-11T19:32:06.938Z,99.99
2017-11-11T19:33:09.732Z,99.99
2017-11-11T19:34:12.666Z,99.99
2017-11-11T19:35:15.388Z,99.99
2017-11-11T19:36:16.910Z,99.99
2017-11-11T19:37:19.718Z,99.99
2017-11-11T19:38:22.557Z,99.99
2017-11-11T19:39:25.173Z,99.99
2017-11-11T19:40:28.063Z,99.99
2017-11-11T19:41:30.860Z,99.99
2017-11-11T19:42:33.601Z,99.99
2017-11-11T19:43:36.402Z,99.99
2017-11-11T19:44:39.086Z,99.99
2017-11-11T19:45:41.791Z,99.99
2017-11-11T19:46:44.524Z,99.99
2017-11-11T19:47:47.158Z,99.99
2017-11-11T19:48:50.139Z,99.99
2017-11-11T19:49:53.033Z,99.99
2017-11-11T19:50:54.500Z,99.99
2017-11-11T19:51:57.150Z,99.99
2017-11-11T19:53:00.027Z,99.99
2017-11-11T19:54:03.021Z,99.99
2017-11-11T19:55:05.960Z,99.99
2017-11-11T19:56:08.730Z,99.99
2017-11-11T19:57:12.587Z,99.99
2017-11-11T19:58:16.352Z,99.99
2017-11-11T19:59:20.126Z,99.99
2017-11-11T20:00:25.227Z,99.99
2017-11-11T20:01:28.834Z,99.99
2017-11-11T20:02:32.336Z,99.99
2017-11-11T20:03:36.288Z,99.99
2017-11-11T20:10:05.396Z,99.99
2017-11-11T20:11:08.330Z,99.99
